createdAt,value
2023-01-29T00:00:47.181Z,6.88
2023-01-29T00:01:48.886Z,6.70
2023-01-29T00:02:50.594Z,7.50
2023-01-29T00:03:52.524Z,7.15
2023-01-29T00:04:58.702Z,7.03
2023-01-29T00:06:01.161Z,6.50
2023-01-29T00:07:02.777Z,7.78
2023-01-29T00:08:04.625Z,6.95
2023-01-29T00:09:06.362Z,6.82
2023-01-29T00:10:08.742Z,6.90
2023-01-29T00:11:10.556Z,7.10
2023-01-29T00:12:12.259Z,6.88
2023-01-29T00:13:14.119Z,7.70
2023-01-29T00:14:15.813Z,7.03
2023-01-29T00:15:17.992Z,6.82
2023-01-29T00:16:19.798Z,6.88
2023-01-29T00:17:21.563Z,6.90
2023-01-29T00:18:23.852Z,7.28
2023-01-29T00:19:25.514Z,7.03
2023-01-29T00:20:27.165Z,7.50
2023-01-29T00:21:30.963Z,6.40
2023-01-29T00:22:32.587Z,7.10
2023-01-29T00:23:34.159Z,7.63
2023-01-29T00:24:35.985Z,6.95
2023-01-29T00:25:37.583Z,6.95
2023-01-29T00:26:40.107Z,7.10
2023-01-29T00:27:41.758Z,6.80
2023-01-29T00:28:43.900Z,6.00
2023-01-29T00:30:05.476Z,6.43
2023-01-29T00:31:18.720Z,7.13
2023-01-29T00:32:20.527Z,5.28
2023-01-29T00:33:22.204Z,6.53
2023-01-29T00:34:23.919Z,6.10
2023-01-29T00:35:25.547Z,6.63
2023-01-29T00:36:27.544Z,6.30
2023-01-29T00:37:29.216Z,7.10
2023-01-29T00:38:30.930Z,6.28
2023-01-29T00:39:47.412Z,6.40
2023-01-29T00:41:08.725Z,6.97
2023-01-29T00:42:29.143Z,6.43
2023-01-29T00:43:49.335Z,5.70
2023-01-29T00:45:00.003Z,6.50
2023-01-29T00:46:01.756Z,6.28
2023-01-29T00:47:04.151Z,6.05
2023-01-29T00:48:06.361Z,6.82
2023-01-29T00:49:08.540Z,6.70
2023-01-29T00:50:11.863Z,6.30
2023-01-29T00:51:13.531Z,6.75
2023-01-29T00:52:24.179Z,7.47
2023-01-29T00:53:25.980Z,6.47
2023-01-29T00:54:27.589Z,6.60
2023-01-29T00:55:29.231Z,6.22
2023-01-29T00:56:30.899Z,6.78
2023-01-29T00:57:34.256Z,6.30
2023-01-29T00:58:35.913Z,6.28
2023-01-29T00:59:37.603Z,5.85
2023-01-29T01:00:39.377Z,6.28
2023-01-29T01:01:59.543Z,7.18
2023-01-29T01:03:07.731Z,7.35
2023-01-29T01:04:11.567Z,6.40
2023-01-29T01:05:18.129Z,6.53
2023-01-29T01:06:19.987Z,6.22
2023-01-29T01:07:21.642Z,6.97
2023-01-29T01:08:41.648Z,6.30
2023-01-29T01:10:02.131Z,6.50
2023-01-29T01:11:07.289Z,6.72
2023-01-29T01:12:08.900Z,6.07
2023-01-29T01:13:10.455Z,6.82
2023-01-29T01:14:12.101Z,6.32
2023-01-29T01:15:13.980Z,6.43
2023-01-29T01:16:18.643Z,6.80
2023-01-29T01:17:20.353Z,6.72
2023-01-29T01:18:22.470Z,6.82
2023-01-29T01:19:24.042Z,7.10
2023-01-29T01:20:27.529Z,6.30
2023-01-29T01:21:29.292Z,6.38
2023-01-29T01:22:31.879Z,7.28
2023-01-29T01:23:33.593Z,7.55
2023-01-29T01:24:35.715Z,7.13
2023-01-29T01:25:37.951Z,6.10
2023-01-29T01:26:39.783Z,6.63
2023-01-29T01:27:41.697Z,6.60
2023-01-29T01:28:43.290Z,6.63
2023-01-29T01:29:47.764Z,7.70
2023-01-29T01:30:49.362Z,7.05
2023-01-29T01:31:53.577Z,7.28
2023-01-29T01:32:55.224Z,7.25
2023-01-29T01:33:57.060Z,10.18
2023-01-29T01:35:00.350Z,7.38
2023-01-29T01:36:02.395Z,7.47
2023-01-29T01:37:04.313Z,6.60
2023-01-29T01:38:05.927Z,6.68
2023-01-29T01:39:07.569Z,9.43
2023-01-29T01:40:18.296Z,7.43
2023-01-29T01:41:22.492Z,6.78
2023-01-29T01:42:30.170Z,6.25
2023-01-29T01:44:00.144Z,6.90
2023-01-29T01:45:06.335Z,7.25
2023-01-29T01:46:08.077Z,6.60
2023-01-29T01:47:09.700Z,6.50
2023-01-29T01:48:18.008Z,6.65
2023-01-29T01:49:21.663Z,7.18
2023-01-29T01:50:33.726Z,6.78
2023-01-29T01:51:39.753Z,7.10
2023-01-29T01:52:45.425Z,7.15
2023-01-29T01:53:54.202Z,7.40
2023-01-29T01:56:03.779Z,6.35
2023-01-29T01:57:16.000Z,6.82
2023-01-29T01:58:21.580Z,7.03
2023-01-29T01:59:24.078Z,6.45
2023-01-29T02:00:26.257Z,6.60
2023-01-29T02:01:28.591Z,7.30
2023-01-29T02:02:48.771Z,7.80
2023-01-29T02:03:59.212Z,7.05
2023-01-29T02:05:19.664Z,7.28
2023-01-29T02:06:39.921Z,7.05
2023-01-29T02:08:05.208Z,6.78
2023-01-29T02:09:31.895Z,6.57
2023-01-29T02:10:40.901Z,6.35
2023-01-29T02:11:42.447Z,6.30
2023-01-29T02:12:45.283Z,7.00
2023-01-29T02:13:46.878Z,6.60
2023-01-29T02:14:48.733Z,6.60
2023-01-29T02:15:50.373Z,6.70
2023-01-29T02:16:52.012Z,7.57
2023-01-29T02:17:53.609Z,7.05
2023-01-29T02:18:55.362Z,7.35
2023-01-29T02:20:09.326Z,6.68
2023-01-29T02:21:25.239Z,6.70
2023-01-29T02:22:40.662Z,6.35
2023-01-29T02:24:20.432Z,6.85
2023-01-29T02:25:37.122Z,7.35
2023-01-29T02:27:04.761Z,6.35
2023-01-29T02:28:24.269Z,5.80
2023-01-29T02:29:35.357Z,6.53
2023-01-29T02:30:41.872Z,6.22
2023-01-29T02:31:48.195Z,6.20
2023-01-29T02:33:13.043Z,6.80
2023-01-29T02:34:17.580Z,6.80
2023-01-29T02:35:30.558Z,7.50
2023-01-29T02:36:46.927Z,6.63
2023-01-29T02:38:13.770Z,7.05
2023-01-29T02:39:23.136Z,6.35
2023-01-29T02:40:45.730Z,6.18
2023-01-29T02:42:02.724Z,6.32
2023-01-29T02:43:09.756Z,6.68
2023-01-29T02:44:38.930Z,6.57
2023-01-29T02:45:48.343Z,6.05
2023-01-29T02:47:04.203Z,6.25
2023-01-29T02:48:06.056Z,6.40
2023-01-29T02:49:26.117Z,6.32
2023-01-29T02:50:47.738Z,6.30
2023-01-29T02:51:58.979Z,6.30
2023-01-29T02:53:12.078Z,6.88
2023-01-29T02:54:24.991Z,6.93
2023-01-29T02:55:46.683Z,6.50
2023-01-29T02:56:58.977Z,6.70
2023-01-29T02:58:08.865Z,6.18
2023-01-29T02:59:17.199Z,6.50
2023-01-29T03:00:21.888Z,6.18
2023-01-29T03:01:33.326Z,6.55
2023-01-29T03:02:34.913Z,6.72
2023-01-29T03:03:41.015Z,7.00
2023-01-29T03:04:47.529Z,7.05
2023-01-29T03:06:08.079Z,6.75
2023-01-29T03:07:35.799Z,6.57
2023-01-29T03:08:45.599Z,7.05
2023-01-29T03:09:51.079Z,6.55
2023-01-29T03:10:57.859Z,6.78
2023-01-29T03:12:20.014Z,7.35
2023-01-29T03:13:28.784Z,6.60
2023-01-29T03:14:55.449Z,6.75
2023-01-29T03:16:04.136Z,6.32
2023-01-29T03:17:15.189Z,6.85
2023-01-29T03:18:27.531Z,7.43
2023-01-29T03:19:43.992Z,6.55
2023-01-29T03:20:59.113Z,6.30
2023-01-29T03:22:04.141Z,7.13
2023-01-29T03:23:13.320Z,7.00
2023-01-29T03:24:37.659Z,7.10
2023-01-29T03:25:59.893Z,6.97
2023-01-29T03:27:27.097Z,6.85
2023-01-29T03:28:49.157Z,8.27
2023-01-29T03:30:10.579Z,8.13
2023-01-29T03:31:45.001Z,6.75
2023-01-29T03:32:47.612Z,6.90
2023-01-29T03:33:52.414Z,7.57
2023-01-29T03:34:58.360Z,7.30
2023-01-29T03:36:07.416Z,10.05
2023-01-29T03:37:19.349Z,9.43
2023-01-29T03:38:21.153Z,8.32
2023-01-29T03:39:28.383Z,7.10
2023-01-29T03:40:50.660Z,6.55
2023-01-29T03:41:58.117Z,6.80
2023-01-29T03:43:22.376Z,6.85
2023-01-29T03:44:37.156Z,6.68
2023-01-29T03:46:00.740Z,6.90
2023-01-29T03:47:34.705Z,7.53
2023-01-29T03:48:40.312Z,6.75
2023-01-29T03:50:02.357Z,7.25
2023-01-29T03:51:25.759Z,6.32
2023-01-29T03:52:56.334Z,6.80
2023-01-29T03:54:08.300Z,8.27
2023-01-29T03:55:15.851Z,6.93
2023-01-29T03:56:32.945Z,7.30
2023-01-29T03:57:41.737Z,7.25
2023-01-29T03:59:01.431Z,6.30
2023-01-29T04:00:32.076Z,6.93
2023-01-29T04:01:42.250Z,6.78
2023-01-29T04:02:52.972Z,6.93
2023-01-29T04:03:54.922Z,5.97
2023-01-29T04:05:01.591Z,6.90
2023-01-29T04:06:29.608Z,7.47
2023-01-29T04:07:41.981Z,6.38
2023-01-29T04:08:48.633Z,6.82
2023-01-29T04:10:13.045Z,6.90
2023-01-29T04:11:17.756Z,6.80
2023-01-29T04:12:24.302Z,7.07
2023-01-29T04:13:26.943Z,6.40
2023-01-29T04:15:33.893Z,7.70
2023-01-29T04:16:39.233Z,7.32
2023-01-29T04:17:52.666Z,7.50
2023-01-29T04:19:17.164Z,7.93
2023-01-29T04:20:20.646Z,8.85
2023-01-29T04:21:22.392Z,7.55
2023-01-29T04:22:34.613Z,7.57
2023-01-29T04:23:36.239Z,7.70
2023-01-29T04:24:38.070Z,7.03
2023-01-29T04:25:45.906Z,7.93
2023-01-29T04:27:29.300Z,7.43
2023-01-29T04:29:17.783Z,6.82
2023-01-29T04:30:24.039Z,6.57
2023-01-29T04:31:30.896Z,6.90
2023-01-29T04:32:42.220Z,7.25
2023-01-29T04:34:24.561Z,6.93
2023-01-29T04:35:26.068Z,6.63
2023-01-29T04:36:36.933Z,6.75
2023-01-29T04:37:53.611Z,7.38
2023-01-29T04:39:21.204Z,6.72
2023-01-29T04:40:46.924Z,7.80
2023-01-29T04:42:03.503Z,7.25
2023-01-29T04:43:13.154Z,6.38
2023-01-29T04:44:32.705Z,6.82
2023-01-29T04:46:09.588Z,7.25
2023-01-29T04:47:24.701Z,7.25
2023-01-29T04:48:26.406Z,7.75
2023-01-29T04:49:34.424Z,7.72
2023-01-29T04:50:44.722Z,8.13
2023-01-29T04:51:58.343Z,7.30
2023-01-29T04:53:14.894Z,7.13
2023-01-29T04:54:30.025Z,8.05
2023-01-29T04:55:47.770Z,7.35
2023-01-29T04:56:52.486Z,8.93
2023-01-29T04:58:15.351Z,7.85
2023-01-29T04:59:53.188Z,7.00
2023-01-29T05:00:54.901Z,7.78
2023-01-29T05:01:56.793Z,7.25
2023-01-29T05:02:59.606Z,7.45
2023-01-29T05:04:09.198Z,7.85
2023-01-29T05:05:12.865Z,7.32
2023-01-29T05:06:16.146Z,7.40
2023-01-29T05:07:18.310Z,8.07
2023-01-29T05:08:23.362Z,11.55
2023-01-29T05:09:25.549Z,8.32
2023-01-29T05:10:27.576Z,8.57
2023-01-29T05:11:31.061Z,8.05
2023-01-29T05:12:33.621Z,8.07
2023-01-29T05:13:39.395Z,7.78
2023-01-29T05:14:44.171Z,7.88
2023-01-29T05:15:52.919Z,7.93
2023-01-29T05:18:03.008Z,7.82
2023-01-29T05:19:04.595Z,7.47
2023-01-29T05:20:07.180Z,8.75
2023-01-29T05:22:12.599Z,7.20
2023-01-29T05:23:19.524Z,7.35
2023-01-29T05:24:23.008Z,8.02
2023-01-29T05:25:27.573Z,8.52
2023-01-29T05:26:47.791Z,7.45
2023-01-29T05:28:14.059Z,7.30
2023-01-29T05:29:15.701Z,7.53
2023-01-29T05:30:17.729Z,8.57
2023-01-29T05:31:19.569Z,8.38
2023-01-29T05:32:21.235Z,8.68
2023-01-29T05:33:30.768Z,8.55
2023-01-29T05:34:32.366Z,8.38
2023-01-29T05:35:34.817Z,8.27
2023-01-29T05:36:36.465Z,8.65
2023-01-29T05:37:38.128Z,8.07
2023-01-29T05:38:39.751Z,8.77
2023-01-29T05:39:41.374Z,10.52
2023-01-29T05:40:43.416Z,8.23
2023-01-29T05:41:45.032Z,9.15
2023-01-29T05:42:46.682Z,8.93
2023-01-29T05:43:48.401Z,9.40
2023-01-29T05:44:50.064Z,8.50
2023-01-29T05:45:53.673Z,8.75
2023-01-29T05:46:55.328Z,9.05
2023-01-29T05:47:58.297Z,9.23
2023-01-29T05:48:59.986Z,9.10
2023-01-29T05:50:01.628Z,9.27
2023-01-29T05:51:04.308Z,8.60
2023-01-29T05:53:07.664Z,7.82
2023-01-29T05:54:12.376Z,8.65
2023-01-29T05:55:13.999Z,8.18
2023-01-29T05:56:15.580Z,8.32
2023-01-29T05:57:17.174Z,9.23
2023-01-29T05:58:19.821Z,9.88
2023-01-29T06:00:23.467Z,7.82
2023-01-29T06:01:25.787Z,8.30
2023-01-29T06:02:30.426Z,9.30
2023-01-29T06:03:31.997Z,8.73
2023-01-29T06:04:33.650Z,8.60
2023-01-29T06:05:38.189Z,8.48
2023-01-29T06:06:39.957Z,8.95
2023-01-29T06:07:45.239Z,8.93
2023-01-29T06:08:46.872Z,9.20
2023-01-29T06:09:48.650Z,9.20
2023-01-29T06:10:50.252Z,9.95
2023-01-29T06:11:51.822Z,8.73
2023-01-29T06:12:53.411Z,9.05
2023-01-29T06:13:55.043Z,8.73
2023-01-29T06:14:56.685Z,9.48
2023-01-29T06:15:58.324Z,9.00
2023-01-29T06:17:00.010Z,9.30
2023-01-29T06:18:01.631Z,9.55
2023-01-29T06:19:03.255Z,9.13
2023-01-29T06:20:05.841Z,9.57
2023-01-29T06:21:09.888Z,7.97
2023-01-29T06:22:11.571Z,9.65
2023-01-29T06:23:13.158Z,8.50
2023-01-29T06:24:14.909Z,8.57
2023-01-29T06:25:16.677Z,8.98
2023-01-29T06:26:18.581Z,8.82
2023-01-29T06:27:20.649Z,8.93
2023-01-29T06:28:22.520Z,9.15
2023-01-29T06:29:24.233Z,10.65
2023-01-29T06:30:25.844Z,9.15
2023-01-29T06:31:43.003Z,9.45
2023-01-29T06:32:44.718Z,9.52
2023-01-29T06:33:46.341Z,8.48
2023-01-29T06:34:49.684Z,9.00
2023-01-29T06:36:02.411Z,8.98
2023-01-29T06:37:04.412Z,9.63
2023-01-29T06:38:06.540Z,9.38
2023-01-29T06:39:08.569Z,9.48
2023-01-29T06:40:11.141Z,9.90
2023-01-29T06:41:14.630Z,9.90
2023-01-29T06:42:16.277Z,9.00
2023-01-29T06:43:17.991Z,9.23
2023-01-29T06:44:19.599Z,9.73
2023-01-29T06:45:21.323Z,8.52
2023-01-29T06:46:22.985Z,9.45
2023-01-29T06:47:24.928Z,9.25
2023-01-29T06:48:26.489Z,9.88
2023-01-29T06:49:28.090Z,11.20
2023-01-29T06:50:29.721Z,9.02
2023-01-29T06:51:31.303Z,10.10
2023-01-29T06:52:32.914Z,9.98
2023-01-29T06:53:35.702Z,10.10
2023-01-29T06:54:37.348Z,8.98
2023-01-29T06:55:39.108Z,10.93
2023-01-29T06:56:40.683Z,10.40
2023-01-29T06:57:42.278Z,9.40
2023-01-29T06:58:43.945Z,10.25
2023-01-29T06:59:45.569Z,9.25
2023-01-29T07:00:47.269Z,8.77
2023-01-29T07:01:49.017Z,9.23
2023-01-29T07:02:50.798Z,9.80
2023-01-29T07:03:52.653Z,8.63
2023-01-29T07:04:54.248Z,9.52
2023-01-29T07:05:55.867Z,9.02
2023-01-29T07:06:59.547Z,9.00
2023-01-29T07:08:01.147Z,9.35
2023-01-29T07:09:05.810Z,9.65
2023-01-29T07:10:08.607Z,8.85
2023-01-29T07:11:10.245Z,8.95
2023-01-29T07:12:11.942Z,8.93
2023-01-29T07:13:13.522Z,9.07
2023-01-29T07:14:15.440Z,9.10
2023-01-29T07:15:20.299Z,8.73
2023-01-29T07:16:21.965Z,9.40
2023-01-29T07:17:23.655Z,10.13
2023-01-29T07:18:25.326Z,10.38
2023-01-29T07:19:27.006Z,9.05
2023-01-29T07:20:30.158Z,10.15
2023-01-29T07:21:31.801Z,9.43
2023-01-29T07:22:33.390Z,9.23
2023-01-29T07:23:35.488Z,8.68
2023-01-29T07:24:37.104Z,9.00
2023-01-29T07:25:39.699Z,9.00
2023-01-29T07:27:42.737Z,9.32
2023-01-29T07:28:44.309Z,9.50
2023-01-29T07:29:45.910Z,8.13
2023-01-29T07:30:47.708Z,8.85
2023-01-29T07:31:49.436Z,8.98
2023-01-29T07:32:51.084Z,8.20
2023-01-29T07:33:52.660Z,8.43
2023-01-29T07:34:54.267Z,8.25
2023-01-29T07:35:56.031Z,8.60
2023-01-29T07:36:57.631Z,8.27
2023-01-29T07:37:59.229Z,8.43
2023-01-29T07:39:00.840Z,7.85
2023-01-29T07:40:02.438Z,9.73
2023-01-29T07:41:04.388Z,8.32
2023-01-29T07:42:06.011Z,8.40
2023-01-29T07:43:08.009Z,8.27
2023-01-29T07:44:09.651Z,8.95
2023-01-29T07:45:12.139Z,8.00
2023-01-29T07:46:13.950Z,8.20
2023-01-29T07:47:17.207Z,7.93
2023-01-29T07:48:19.264Z,8.15
2023-01-29T07:49:20.877Z,7.97
2023-01-29T07:50:23.946Z,8.60
2023-01-29T07:51:25.586Z,8.23
2023-01-29T07:52:29.781Z,8.65
2023-01-29T07:53:31.524Z,8.52
2023-01-29T07:54:33.105Z,8.55
2023-01-29T07:55:34.704Z,7.93
2023-01-29T07:56:36.311Z,7.85
2023-01-29T07:57:37.926Z,8.15
2023-01-29T07:58:39.506Z,8.30
2023-01-29T07:59:41.155Z,7.63
2023-01-29T08:00:43.717Z,8.18
2023-01-29T08:01:45.319Z,8.32
2023-01-29T08:02:46.931Z,8.32
2023-01-29T08:03:50.591Z,8.95
2023-01-29T08:04:53.019Z,7.68
2023-01-29T08:05:54.663Z,8.20
2023-01-29T08:06:56.232Z,8.52
2023-01-29T08:08:06.622Z,7.53
2023-01-29T08:09:08.847Z,8.43
2023-01-29T08:10:11.140Z,7.93
2023-01-29T08:11:13.062Z,8.90
2023-01-29T08:12:14.753Z,9.43
2023-01-29T08:13:16.308Z,8.93
2023-01-29T08:14:17.936Z,10.25
2023-01-29T08:15:19.583Z,8.70
2023-01-29T08:16:21.193Z,7.97
2023-01-29T08:17:23.062Z,8.00
2023-01-29T08:18:24.729Z,7.80
2023-01-29T08:19:26.336Z,7.65
2023-01-29T08:20:28.497Z,5.95
2023-01-29T08:21:30.122Z,6.22
2023-01-29T08:22:31.797Z,6.72
2023-01-29T08:23:33.473Z,7.13
2023-01-29T08:24:47.657Z,6.38
2023-01-29T08:25:55.948Z,5.90
2023-01-29T08:26:57.580Z,6.78
2023-01-29T08:28:00.198Z,7.82
2023-01-29T08:30:04.625Z,5.20
2023-01-29T08:31:13.785Z,5.80
2023-01-29T08:32:15.349Z,5.18
2023-01-29T08:33:19.478Z,5.78
2023-01-29T08:34:23.252Z,5.43
2023-01-29T08:35:25.549Z,6.07
2023-01-29T08:36:27.144Z,5.75
2023-01-29T08:37:28.730Z,5.70
2023-01-29T08:38:30.294Z,6.13
2023-01-29T08:39:33.673Z,5.85
2023-01-29T08:40:36.070Z,5.78
2023-01-29T08:41:37.647Z,6.63
2023-01-29T08:42:41.305Z,6.65
2023-01-29T08:43:42.890Z,6.90
2023-01-29T08:44:44.496Z,6.47
2023-01-29T08:45:46.214Z,7.65
2023-01-29T08:46:47.795Z,7.93
2023-01-29T08:47:50.151Z,7.15
2023-01-29T08:48:51.829Z,7.03
2023-01-29T08:49:53.453Z,7.80
2023-01-29T08:50:57.667Z,7.78
2023-01-29T08:52:00.453Z,8.13
2023-01-29T08:53:07.799Z,8.07
2023-01-29T08:54:09.427Z,8.20
2023-01-29T08:55:11.615Z,7.13
2023-01-29T08:56:13.225Z,7.15
2023-01-29T08:57:14.825Z,8.05
2023-01-29T08:58:16.388Z,7.68
2023-01-29T08:59:18.075Z,7.30
2023-01-29T09:00:20.070Z,7.15
2023-01-29T09:01:21.729Z,7.68
2023-01-29T09:02:23.392Z,7.53
2023-01-29T09:03:24.982Z,7.13
2023-01-29T09:04:26.571Z,7.25
2023-01-29T09:05:28.780Z,7.00
2023-01-29T09:06:30.354Z,6.75
2023-01-29T09:07:32.072Z,5.95
2023-01-29T09:08:33.643Z,6.20
2023-01-29T09:09:35.238Z,5.45
2023-01-29T09:10:36.955Z,6.10
2023-01-29T09:11:40.534Z,6.05
2023-01-29T09:12:42.150Z,5.65
2023-01-29T09:13:43.842Z,6.05
2023-01-29T09:14:45.457Z,6.18
2023-01-29T09:15:47.059Z,7.15
2023-01-29T09:16:48.709Z,7.03
2023-01-29T09:17:50.336Z,6.70
2023-01-29T09:18:53.136Z,7.53
2023-01-29T09:19:54.761Z,7.00
2023-01-29T09:20:57.119Z,7.97
2023-01-29T09:21:58.873Z,6.95
2023-01-29T09:23:07.697Z,7.00
2023-01-29T09:24:09.342Z,6.05
2023-01-29T09:25:11.137Z,6.38
2023-01-29T09:26:12.777Z,6.35
2023-01-29T09:27:14.474Z,6.68
2023-01-29T09:28:17.657Z,6.50
2023-01-29T09:29:19.206Z,6.05
2023-01-29T09:30:21.002Z,6.97
2023-01-29T09:31:22.691Z,8.02
2023-01-29T09:32:52.091Z,7.32
2023-01-29T09:33:46.103Z,6.85
2023-01-29T09:34:47.667Z,6.80
2023-01-29T09:35:49.356Z,6.43
2023-01-29T09:36:52.311Z,7.68
2023-01-29T09:37:54.049Z,7.18
2023-01-29T09:38:55.683Z,6.10
2023-01-29T09:39:57.255Z,6.22
2023-01-29T09:41:06.245Z,6.28
2023-01-29T09:42:27.824Z,5.63
2023-01-29T09:43:39.367Z,6.35
2023-01-29T09:45:04.827Z,5.70
2023-01-29T09:46:15.844Z,5.88
2023-01-29T09:47:17.999Z,5.82
2023-01-29T09:48:20.481Z,6.03
2023-01-29T09:49:27.880Z,7.70
2023-01-29T09:50:41.003Z,6.28
2023-01-29T09:51:46.759Z,6.97
2023-01-29T09:52:59.145Z,7.25
2023-01-29T09:54:15.640Z,6.22
2023-01-29T09:55:32.572Z,6.07
2023-01-29T09:56:35.154Z,6.05
2023-01-29T09:57:50.394Z,5.65
2023-01-29T09:58:52.035Z,6.10
2023-01-29T09:59:54.464Z,6.55
2023-01-29T10:00:59.067Z,6.45
2023-01-29T10:02:11.162Z,7.68
2023-01-29T10:03:12.725Z,6.45
2023-01-29T10:04:29.171Z,7.03
2023-01-29T10:05:58.689Z,6.88
2023-01-29T10:07:12.132Z,6.75
2023-01-29T10:08:13.691Z,5.80
2023-01-29T10:09:46.459Z,7.30
2023-01-29T10:10:49.250Z,5.78
2023-01-29T10:13:12.191Z,5.85
2023-01-29T10:14:18.320Z,5.95
2023-01-29T10:15:53.666Z,5.38
2023-01-29T10:17:00.903Z,6.00
2023-01-29T10:18:27.332Z,6.25
2023-01-29T10:19:43.828Z,6.47
2023-01-29T10:21:01.235Z,5.97
2023-01-29T10:22:08.870Z,5.97
2023-01-29T10:23:20.795Z,5.32
2023-01-29T10:24:29.055Z,5.97
2023-01-29T10:25:33.829Z,5.88
2023-01-29T10:26:37.872Z,6.20
2023-01-29T10:27:41.688Z,6.53
2023-01-29T10:28:46.504Z,6.35
2023-01-29T10:29:51.014Z,6.65
2023-01-29T10:30:58.539Z,6.20
2023-01-29T10:32:06.039Z,6.70
2023-01-29T10:33:12.895Z,6.55
2023-01-29T10:34:40.477Z,5.20
2023-01-29T10:35:50.272Z,5.97
2023-01-29T10:36:51.906Z,5.95
2023-01-29T10:37:54.529Z,5.50
2023-01-29T10:39:59.978Z,5.38
2023-01-29T10:41:01.506Z,5.95
2023-01-29T10:42:15.382Z,5.40
2023-01-29T10:43:29.884Z,6.43
2023-01-29T10:44:34.247Z,6.07
2023-01-29T10:46:08.117Z,6.07
2023-01-29T10:47:33.438Z,6.00
2023-01-29T10:48:47.144Z,6.88
2023-01-29T10:50:04.509Z,6.18
2023-01-29T10:51:41.455Z,6.30
2023-01-29T10:53:01.260Z,6.45
2023-01-29T10:54:33.421Z,5.63
2023-01-29T10:55:56.060Z,5.78
2023-01-29T10:56:57.618Z,5.88
2023-01-29T10:58:07.440Z,5.80
2023-01-29T10:59:18.029Z,6.38
2023-01-29T11:00:22.914Z,5.68
2023-01-29T11:01:24.663Z,6.43
2023-01-29T11:02:26.407Z,6.80
2023-01-29T11:03:31.120Z,6.40
2023-01-29T11:04:33.796Z,6.63
2023-01-29T11:06:38.832Z,5.78
2023-01-29T11:07:40.509Z,5.70
2023-01-29T11:08:59.380Z,6.57
2023-01-29T11:10:08.326Z,5.90
2023-01-29T11:11:17.879Z,6.25
2023-01-29T11:12:23.721Z,6.40
2023-01-29T11:13:31.472Z,6.80
2023-01-29T11:14:53.242Z,6.47
2023-01-29T11:15:54.885Z,5.85
2023-01-29T11:16:56.485Z,6.68
2023-01-29T11:18:05.736Z,6.50
2023-01-29T11:19:07.347Z,5.95
2023-01-29T11:20:26.659Z,6.50
2023-01-29T11:21:29.665Z,5.75
2023-01-29T11:22:31.461Z,6.85
2023-01-29T11:23:33.822Z,6.38
2023-01-29T11:24:35.470Z,6.43
2023-01-29T11:25:37.054Z,6.53
2023-01-29T11:26:40.866Z,6.70
2023-01-29T11:27:50.145Z,6.93
2023-01-29T11:28:51.840Z,6.70
2023-01-29T11:29:54.135Z,6.97
2023-01-29T11:30:55.915Z,7.80
2023-01-29T11:31:59.241Z,6.50
2023-01-29T11:33:23.857Z,6.65
2023-01-29T11:34:27.661Z,6.40
2023-01-29T11:35:30.646Z,6.20
2023-01-29T11:36:39.237Z,6.57
2023-01-29T11:37:42.901Z,6.53
2023-01-29T11:38:44.485Z,6.40
2023-01-29T11:39:47.297Z,6.97
2023-01-29T11:40:48.943Z,7.78
2023-01-29T11:41:57.939Z,6.97
2023-01-29T11:43:12.811Z,6.82
2023-01-29T11:44:19.477Z,6.60
2023-01-29T11:45:29.969Z,6.78
2023-01-29T11:46:32.266Z,6.70
2023-01-29T11:47:33.889Z,7.05
2023-01-29T11:48:59.414Z,7.25
2023-01-29T11:50:17.824Z,7.03
2023-01-29T11:51:27.544Z,6.85
2023-01-29T11:52:37.024Z,7.20
2023-01-29T11:53:46.290Z,6.60
2023-01-29T11:55:10.941Z,7.63
2023-01-29T11:56:17.202Z,7.15
2023-01-29T11:57:26.413Z,6.70
2023-01-29T11:58:30.267Z,6.88
2023-01-29T11:59:48.532Z,7.40
2023-01-29T12:00:51.721Z,6.43
2023-01-29T12:01:54.222Z,6.97
2023-01-29T12:02:59.280Z,7.55
2023-01-29T12:04:01.441Z,7.65
2023-01-29T12:05:15.579Z,7.18
2023-01-29T12:06:24.997Z,6.80
2023-01-29T12:07:26.735Z,7.30
2023-01-29T12:08:38.420Z,7.68
2023-01-29T12:09:40.433Z,6.68
2023-01-29T12:10:43.139Z,6.93
2023-01-29T12:12:46.290Z,6.82
2023-01-29T12:13:54.287Z,6.20
2023-01-29T12:15:08.789Z,7.15
2023-01-29T12:16:19.306Z,7.07
2023-01-29T12:17:26.281Z,6.95
2023-01-29T12:18:40.526Z,7.47
2023-01-29T12:19:51.194Z,6.68
2023-01-29T12:21:02.623Z,6.93
2023-01-29T12:22:17.561Z,6.45
2023-01-29T12:23:22.184Z,6.32
2023-01-29T12:24:46.327Z,7.22
2023-01-29T12:25:58.941Z,6.25
2023-01-29T12:27:06.576Z,6.00
2023-01-29T12:28:19.219Z,6.80
2023-01-29T12:29:58.217Z,7.22
2023-01-29T12:31:20.922Z,6.82
2023-01-29T12:32:43.696Z,7.35
2023-01-29T12:34:15.555Z,7.10
2023-01-29T12:35:17.170Z,6.93
2023-01-29T12:36:25.161Z,6.75
2023-01-29T12:37:45.952Z,7.28
2023-01-29T12:38:47.889Z,7.45
2023-01-29T12:39:50.087Z,7.70
2023-01-29T12:41:07.335Z,7.53
2023-01-29T12:42:16.963Z,6.82
2023-01-29T12:43:30.062Z,7.20
2023-01-29T12:44:51.927Z,7.30
2023-01-29T12:45:55.468Z,7.38
2023-01-29T12:46:59.688Z,8.38
2023-01-29T12:48:06.790Z,8.18
2023-01-29T12:49:18.422Z,7.43
2023-01-29T12:50:24.580Z,7.95
2023-01-29T12:51:31.549Z,8.32
2023-01-29T12:52:38.458Z,8.23
2023-01-29T12:53:57.761Z,7.43
2023-01-29T12:55:03.682Z,6.65
2023-01-29T12:56:12.872Z,6.18
2023-01-29T12:57:24.502Z,7.15
2023-01-29T12:58:38.463Z,6.43
2023-01-29T12:59:44.249Z,6.97
2023-01-29T13:00:48.709Z,7.40
2023-01-29T13:01:53.882Z,7.18
2023-01-29T13:02:57.041Z,7.80
2023-01-29T13:04:07.388Z,7.57
2023-01-29T13:05:20.094Z,7.45
2023-01-29T13:06:27.721Z,7.55
2023-01-29T13:07:33.532Z,7.80
2023-01-29T13:08:49.571Z,7.88
2023-01-29T13:09:54.472Z,7.80
2023-01-29T13:10:58.356Z,7.15
2023-01-29T13:12:04.343Z,7.75
2023-01-29T13:13:14.666Z,8.40
2023-01-29T13:14:16.181Z,8.23
2023-01-29T13:15:23.395Z,9.18
2023-01-29T13:16:28.408Z,13.07
2023-01-29T13:17:36.540Z,11.70
2023-01-29T13:18:43.227Z,9.35
2023-01-29T13:19:50.051Z,7.68
2023-01-29T13:20:51.835Z,8.60
2023-01-29T13:21:55.383Z,8.35
2023-01-29T13:23:02.295Z,8.65
2023-01-29T13:24:07.527Z,7.65
2023-01-29T13:25:20.045Z,7.32
2023-01-29T13:26:22.588Z,7.78
2023-01-29T13:27:27.129Z,7.78
2023-01-29T13:28:28.780Z,8.70
2023-01-29T13:29:31.023Z,7.88
2023-01-29T13:30:35.339Z,7.72
2023-01-29T13:31:38.992Z,7.63
2023-01-29T13:32:41.432Z,7.55
2023-01-29T13:33:43.599Z,8.25
2023-01-29T13:34:46.738Z,8.65
2023-01-29T13:35:48.966Z,7.88
2023-01-29T13:36:58.794Z,7.20
2023-01-29T13:38:00.418Z,8.75
2023-01-29T13:39:06.013Z,8.30
2023-01-29T13:40:08.526Z,8.15
2023-01-29T13:41:10.220Z,8.05
2023-01-29T13:42:21.543Z,7.93
2023-01-29T13:43:23.812Z,8.02
2023-01-29T13:44:32.916Z,8.90
2023-01-29T13:45:43.576Z,8.23
2023-01-29T13:46:49.896Z,6.85
2023-01-29T13:47:52.613Z,7.22
2023-01-29T13:50:09.338Z,7.28
2023-01-29T13:51:19.504Z,6.78
2023-01-29T13:52:34.966Z,8.70
2023-01-29T13:53:40.704Z,7.47
2023-01-29T13:54:50.911Z,8.75
2023-01-29T13:55:52.557Z,8.23
2023-01-29T13:56:59.263Z,7.97
2023-01-29T13:58:02.412Z,7.95
2023-01-29T13:59:06.808Z,7.53
2023-01-29T14:00:33.970Z,7.30
2023-01-29T14:01:47.652Z,7.43
2023-01-29T14:02:55.074Z,7.82
2023-01-29T14:04:04.911Z,7.90
2023-01-29T14:05:29.410Z,8.60
2023-01-29T14:06:43.036Z,8.20
2023-01-29T14:07:44.511Z,8.35
2023-01-29T14:08:47.303Z,12.05
2023-01-29T14:09:48.902Z,11.30
2023-01-29T14:11:30.664Z,10.57
2023-01-29T14:12:33.735Z,8.45
2023-01-29T14:13:35.885Z,9.10
2023-01-29T14:14:59.507Z,8.40
2023-01-29T14:16:01.093Z,8.43
2023-01-29T14:17:03.107Z,8.25
2023-01-29T14:18:13.833Z,8.20
2023-01-29T14:19:18.591Z,7.18
2023-01-29T14:20:27.607Z,6.80
2023-01-29T14:21:34.014Z,7.90
2023-01-29T14:22:35.670Z,8.88
2023-01-29T14:23:51.324Z,8.07
2023-01-29T14:24:59.897Z,7.65
2023-01-29T14:26:04.715Z,7.90
2023-01-29T14:27:06.361Z,9.55
2023-01-29T14:28:16.380Z,9.60
2023-01-29T14:29:35.116Z,8.10
2023-01-29T14:30:38.042Z,8.13
2023-01-29T14:32:47.048Z,7.95
2023-01-29T14:33:48.899Z,7.85
2023-01-29T14:34:56.722Z,8.32
2023-01-29T14:35:58.857Z,8.60
2023-01-29T14:37:15.845Z,8.35
2023-01-29T14:38:17.881Z,8.15
2023-01-29T14:39:24.916Z,8.10
2023-01-29T14:40:28.009Z,7.80
2023-01-29T14:41:31.551Z,7.75
2023-01-29T14:42:39.698Z,8.95
2023-01-29T14:43:41.320Z,7.78
2023-01-29T14:44:45.776Z,8.10
2023-01-29T14:45:51.547Z,8.00
2023-01-29T14:46:53.202Z,9.27
2023-01-29T14:48:00.641Z,7.80
2023-01-29T14:49:02.827Z,8.00
2023-01-29T14:50:29.418Z,8.32
2023-01-29T14:51:37.504Z,7.47
2023-01-29T14:52:42.638Z,7.63
2023-01-29T14:53:50.592Z,8.25
2023-01-29T14:54:53.244Z,8.73
2023-01-29T14:57:05.053Z,8.05
2023-01-29T14:58:09.891Z,7.93
2023-01-29T14:59:11.389Z,7.68
2023-01-29T15:00:35.017Z,7.50
2023-01-29T15:01:40.303Z,7.68
2023-01-29T15:02:44.016Z,8.23
2023-01-29T15:04:06.630Z,8.40
2023-01-29T15:05:12.024Z,7.25
2023-01-29T15:06:26.698Z,8.45
2023-01-29T15:07:39.329Z,7.22
2023-01-29T15:08:45.952Z,7.25
2023-01-29T15:10:01.307Z,7.50
2023-01-29T15:11:28.323Z,7.80